Time;durP1;ratioP1;P1;durP2;ratioP2;P2;SDS_P1;SDS_P2;PMS_P1;PMS_P2;Temp;Humidity;BMP_temperature;BMP_pressure;BME280_temperature;BME280_humidity;BME280_pressure;Samples;Min_cycle;Max_cycle;Signal;HPM_P1;HPM_P2
2022/01/25 00:33:41;;;;;;;21.17;9.70;;;6.00;99.90;5.80;102193.00;;;;4975984;27;92712;-73
2022/01/25 00:36:11;;;;;;;16.63;9.50;;;6.00;99.90;5.80;102188.00;;;;5014747;27;93276;-73
2022/01/25 00:38:37;;;;;;;12.33;8.23;;;6.00;99.90;5.80;102200.00;;;;5013912;27;92972;-73
2022/01/25 00:41:03;;;;;;;20.20;9.13;;;6.00;99.90;5.80;102192.00;;;;5013861;27;93008;-73
2022/01/25 00:43:30;;;;;;;17.53;9.67;;;6.00;99.90;5.90;102192.00;;;;4994074;27;108405;-73
2022/01/25 00:46:02;;;;;;;19.03;10.73;;;6.00;99.90;5.80;102186.00;;;;4994356;27;94362;-74
2022/01/25 00:48:42;;;;;;;19.43;9.63;;;6.00;99.90;5.80;102183.00;;;;5013198;27;93827;-73
2022/01/25 00:54:02;;;;;;;16.47;9.60;;;6.10;99.90;5.80;102178.00;;;;5011497;27;93018;-74
2022/01/25 00:56:35;;;;;;;14.67;9.57;;;6.00;99.90;5.80;102176.00;;;;5000084;27;94190;-73
2022/01/25 00:59:05;;;;;;;13.00;8.37;;;6.00;99.90;5.80;102181.00;;;;5002111;27;93375;-73
2022/01/25 01:01:31;;;;;;;16.80;10.33;;;6.00;99.90;5.80;102184.00;;;;4997045;27;92902;-73
2022/01/25 01:03:57;;;;;;;13.93;9.43;;;6.00;99.90;5.80;102181.00;;;;4972656;28;108470;-73
2022/01/25 01:06:24;;;;;;;13.87;9.37;;;6.00;99.90;5.80;102177.00;;;;4973970;28;121749;-74
2022/01/25 01:08:50;;;;;;;13.57;8.47;;;6.00;99.90;5.80;102181.00;;;;4995305;27;94029;-73
2022/01/25 01:11:22;;;;;;;13.77;9.90;;;6.00;99.90;5.90;102175.00;;;;5013414;27;93716;-73
2022/01/25 01:30:31;;;;;;;13.87;8.63;;;6.00;99.90;5.80;102151.00;;;;4992073;27;92736;-73
2022/01/25 01:41:28;;;;;;;14.30;9.40;;;5.80;99.90;5.60;102139.00;;;;4990066;28;93242;-74
2022/01/25 01:43:56;;;;;;;14.83;9.50;;;5.80;99.90;5.60;102131.00;;;;4993277;27;92989;-74
2022/01/25 01:48:59;;;;;;;16.27;9.60;;;5.80;99.90;5.60;102131.00;;;;5009447;27;92825;-73
2022/01/25 01:51:32;;;;;;;18.97;9.93;;;5.70;99.90;5.50;102125.00;;;;5013227;27;93168;-73
2022/01/25 01:54:10;;;;;;;16.80;10.43;;;5.70;99.90;5.50;102120.00;;;;4994446;27;93080;-72
2022/01/25 01:56:38;;;;;;;22.00;11.87;;;5.70;99.90;5.50;102118.00;;;;4990370;28;99979;-73
2022/01/25 01:59:10;;;;;;;15.33;9.73;;;5.70;99.90;5.50;102119.00;;;;5004136;27;93555;-69
2022/01/25 02:01:37;;;;;;;18.63;10.37;;;5.70;99.90;5.50;102128.00;;;;4995191;27;92801;-71
2022/01/25 02:04:06;;;;;;;16.33;10.83;;;5.70;99.90;5.40;102111.00;;;;5010913;27;97934;-70
2022/01/25 02:06:32;;;;;;;20.43;11.90;;;5.60;99.90;5.40;102117.00;;;;5012798;27;92857;-69
2022/01/25 02:08:58;;;;;;;19.00;10.93;;;5.60;99.90;5.40;102109.00;;;;5009724;27;113461;-73
2022/01/25 02:11:25;;;;;;;20.37;10.80;;;5.60;99.90;5.40;102110.00;;;;5012184;27;92804;-70
2022/01/25 02:13:52;;;;;;;18.13;10.17;;;5.60;99.90;5.30;102107.00;;;;5011628;27;92722;-71
2022/01/25 02:16:37;;;;;;;18.70;10.30;;;5.50;99.90;5.30;102111.00;;;;5000081;27;93500;-74
2022/01/25 02:24:35;;;;;;;16.50;10.17;;;5.50;99.90;5.30;102104.00;;;;5012511;27;93048;-69
2022/01/25 02:27:02;;;;;;;15.40;9.93;;;5.50;99.90;5.30;102108.00;;;;4992849;27;92903;-71
2022/01/25 02:29:27;;;;;;;16.27;9.80;;;5.40;99.90;5.20;102098.00;;;;5011332;27;95490;-72
2022/01/25 02:31:55;;;;;;;16.53;9.97;;;5.50;99.90;5.20;102095.00;;;;4992835;27;122492;-72
2022/01/25 02:34:22;;;;;;;13.70;8.87;;;5.50;99.90;5.20;102085.00;;;;5010099;27;92693;-73
2022/01/25 02:37:14;;;;;;;15.83;9.97;;;5.40;99.90;5.20;102086.00;;;;5013762;27;92874;-73
2022/01/25 02:39:44;;;;;;;13.67;9.30;;;5.40;99.90;5.10;102088.00;;;;4991088;27;95182;-71
2022/01/25 02:42:13;;;;;;;16.30;9.90;;;5.30;99.90;5.10;102091.00;;;;4994108;27;93015;-70
2022/01/25 02:44:41;;;;;;;13.37;8.37;;;5.30;99.90;5.10;102084.00;;;;4997293;27;92821;-72
2022/01/25 02:49:52;;;;;;;16.00;9.37;;;5.20;99.90;5.10;102087.00;;;;5002274;27;92978;-72
2022/01/25 02:52:19;;;;;;;14.93;9.13;;;5.40;99.90;5.00;102071.00;;;;5011345;27;122711;-71
2022/01/25 02:54:45;;;;;;;15.03;8.90;;;5.30;99.90;5.00;102075.00;;;;5011573;27;93773;-71
2022/01/25 02:57:12;;;;;;;15.90;9.87;;;5.20;99.90;5.00;102074.00;;;;4994231;27;92884;-70
2022/01/25 02:59:38;;;;;;;18.83;9.67;;;5.20;99.90;5.00;102074.00;;;;5011682;27;94211;-71
2022/01/25 03:02:04;;;;;;;13.37;8.97;;;5.10;99.90;4.90;102064.00;;;;5010715;27;94181;-70
2022/01/25 03:04:30;;;;;;;15.27;9.37;;;5.10;99.90;4.90;102071.00;;;;4975354;28;107888;-70
2022/01/25 03:06:56;;;;;;;18.30;10.07;;;5.10;99.90;4.90;102068.00;;;;4992116;28;93854;-71
2022/01/25 03:09:21;;;;;;;14.17;9.57;;;5.10;99.90;4.90;102067.00;;;;4991359;27;94057;-72
2022/01/25 03:11:51;;;;;;;15.27;9.23;;;5.00;99.90;4.90;102079.00;;;;4999102;27;93157;-73
2022/01/25 03:14:19;;;;;;;16.47;9.43;;;5.10;99.90;4.90;102070.00;;;;5011393;27;92956;-70
2022/01/25 03:17:04;;;;;;;15.03;9.70;;;5.40;99.90;4.90;102070.00;;;;5012076;27;92952;-71
2022/01/25 03:22:16;;;;;;;17.27;10.00;;;5.10;99.90;4.90;102070.00;;;;5008634;27;94250;-70
2022/01/25 03:24:42;;;;;;;14.97;10.03;;;5.10;99.90;4.90;102067.00;;;;4998564;27;92944;-71
2022/01/25 03:27:07;;;;;;;18.00;10.13;;;5.00;99.90;4.90;102068.00;;;;4990720;28;109239;-69
2022/01/25 03:29:33;;;;;;;16.80;9.60;;;5.00;99.90;4.90;102069.00;;;;4991248;27;93520;-72
2022/01/25 03:31:59;;;;;;;21.17;11.23;;;5.00;99.90;4.80;102066.00;;;;4990719;27;122015;-72
2022/01/25 03:34:25;;;;;;;15.90;9.23;;;5.00;99.90;4.80;102068.00;;;;4991006;27;110251;-71
2022/01/25 03:36:50;;;;;;;17.00;10.60;;;5.00;99.90;4.80;102062.00;;;;4991754;28;108892;-69
2022/01/25 03:39:16;;;;;;;18.20;10.47;;;5.00;99.90;4.80;102066.00;;;;4991302;27;120727;-70
2022/01/25 03:41:42;;;;;;;15.57;10.43;;;5.00;99.90;4.80;102058.00;;;;4991601;27;93103;-71
2022/01/25 03:44:08;;;;;;;14.03;9.97;;;5.00;99.90;4.80;102054.00;;;;4990512;27;93801;-70
2022/01/25 03:46:43;;;;;;;14.37;9.40;;;5.00;99.90;4.80;102062.00;;;;4986865;28;93139;-70
2022/01/25 03:51:53;;;;;;;17.23;10.03;;;5.00;99.90;4.80;102054.00;;;;4975626;28;92795;-70
2022/01/25 03:54:19;;;;;;;22.57;12.87;;;5.00;99.90;4.80;102052.00;;;;5000506;27;92974;-69
2022/01/25 03:56:46;;;;;;;14.70;10.40;;;4.90;99.90;4.80;102057.00;;;;4982748;28;92799;-69
2022/01/25 03:59:12;;;;;;;16.77;9.33;;;5.00;99.90;4.80;102051.00;;;;4960699;28;94988;-70
2022/01/25 04:01:38;;;;;;;17.67;10.90;;;5.00;99.90;4.80;102059.00;;;;4995312;28;93029;-70
2022/01/25 04:04:09;;;;;;;15.23;9.03;;;5.00;99.90;4.80;102069.00;;;;5011460;27;107170;-70
2022/01/25 04:06:36;;;;;;;20.80;12.17;;;5.00;99.90;4.80;102063.00;;;;4997186;27;92777;-70
2022/01/25 04:09:07;;;;;;;18.77;10.07;;;5.00;99.90;4.80;102063.00;;;;5009835;27;95162;-74
2022/01/25 04:11:34;;;;;;;16.37;11.00;;;5.00;99.90;4.90;102064.00;;;;4993220;27;94777;-74
2022/01/25 04:14:01;;;;;;;14.77;9.27;;;5.00;99.90;4.90;102070.00;;;;4976115;28;93010;-71
2022/01/25 04:16:33;;;;;;;18.47;10.33;;;5.10;99.90;4.90;102073.00;;;;5002020;27;109162;-71
2022/01/25 04:19:05;;;;;;;18.80;10.40;;;5.10;99.90;4.90;102064.00;;;;5014165;27;93308;-69
2022/01/25 04:26:47;;;;;;;18.37;10.37;;;5.10;99.90;4.90;102058.00;;;;4991563;28;92069;-72
2022/01/25 04:29:13;;;;;;;19.73;11.03;;;5.10;99.90;4.90;102040.00;;;;4993497;28;92746;-73
2022/01/25 04:31:39;;;;;;;17.17;10.13;;;5.10;99.90;4.90;102033.00;;;;4993239;28;105888;-72
2022/01/25 04:50:34;;;;;;;13.90;8.13;;;5.10;99.90;4.90;102051.00;;;;5013983;27;93272;-71
2022/01/25 04:53:11;;;;;;;15.93;9.40;;;5.10;99.90;4.90;102043.00;;;;4999788;27;95467;-74
2022/01/25 04:55:46;;;;;;;17.87;10.07;;;5.10;99.90;4.90;102036.00;;;;5011291;27;92872;-72
2022/01/25 04:58:19;;;;;;;20.03;11.07;;;5.10;99.90;4.90;102040.00;;;;4995090;27;92720;-71
2022/01/25 05:00:47;;;;;;;16.20;9.13;;;5.10;99.90;4.90;102053.00;;;;5012191;27;94583;-71
2022/01/25 05:03:20;;;;;;;15.93;9.20;;;5.10;99.90;4.80;102053.00;;;;5012647;27;94792;-72
2022/01/25 05:05:57;;;;;;;17.93;9.13;;;5.10;99.90;4.90;102054.00;;;;4996288;27;92939;-73
2022/01/25 05:08:35;;;;;;;10.33;7.27;;;5.10;99.90;4.90;102056.00;;;;5014186;27;92804;-72
2022/01/25 05:11:09;;;;;;;11.30;7.00;;;5.00;99.90;4.80;102058.00;;;;5013974;27;93041;-72
2022/01/25 05:13:43;;;;;;;11.07;6.93;;;5.00;99.90;4.80;102058.00;;;;4978118;27;94411;-72
2022/01/25 05:24:27;;;;;;;13.97;8.03;;;5.00;99.90;4.80;102051.00;;;;5012827;27;92963;-73
2022/01/25 05:26:53;;;;;;;14.20;6.63;;;5.00;99.90;4.80;102056.00;;;;5012980;27;109928;-72
2022/01/25 05:29:19;;;;;;;13.70;7.47;;;5.00;99.90;4.80;102049.00;;;;5013345;27;93004;-72
2022/01/25 05:31:45;;;;;;;15.63;8.27;;;5.00;99.90;4.80;102056.00;;;;5012471;27;123253;-72
2022/01/25 05:34:10;;;;;;;15.10;7.17;;;5.00;99.90;4.80;102064.00;;;;5011089;27;121223;-73
2022/01/25 05:36:38;;;;;;;15.53;8.43;;;5.00;99.90;4.80;102059.00;;;;5012804;27;110783;-73
2022/01/25 05:39:11;;;;;;;14.27;7.57;;;5.10;99.90;4.80;102058.00;;;;5011559;27;92929;-72
2022/01/25 05:41:36;;;;;;;14.07;8.50;;;5.00;99.90;4.90;102060.00;;;;4994982;27;94427;-72
2022/01/25 05:47:14;;;;;;;9.93;6.87;;;5.00;99.90;4.80;102054.00;;;;5005151;27;93285;-72
2022/01/25 05:49:31;;;;;;;9.93;6.97;;;5.00;99.90;4.80;102054.00;;;;4988447;27;92963;-72
2022/01/25 05:51:56;;;;;;;10.33;6.87;;;5.00;99.90;4.80;102053.00;;;;4998000;27;94950;-72
2022/01/25 05:54:22;;;;;;;15.50;7.93;;;5.00;99.90;4.80;102058.00;;;;4994707;27;123987;-73
2022/01/25 05:56:48;;;;;;;12.77;7.53;;;5.00;99.90;4.80;102052.00;;;;5002815;27;110351;-73
2022/01/25 05:59:14;;;;;;;10.57;6.50;;;5.00;99.90;4.80;102066.00;;;;5004507;27;109765;-72
2022/01/25 06:01:39;;;;;;;11.40;7.63;;;5.00;99.90;4.80;102066.00;;;;5008606;27;123226;-72
2022/01/25 06:04:06;;;;;;;9.80;7.03;;;4.90;99.90;4.80;102068.00;;;;4996268;27;123904;-72
2022/01/25 06:06:32;;;;;;;9.40;6.50;;;5.00;99.90;4.80;102064.00;;;;5008176;27;93015;-71
2022/01/25 06:08:59;;;;;;;11.90;6.93;;;5.00;99.90;4.80;102059.00;;;;5008483;27;92169;-72
2022/01/25 06:11:25;;;;;;;13.37;6.70;;;5.00;99.90;4.80;102071.00;;;;4976820;28;93018;-72
2022/01/25 06:13:52;;;;;;;12.70;7.10;;;4.90;99.90;4.80;102066.00;;;;5007469;27;92865;-70
2022/01/25 06:16:18;;;;;;;11.87;7.10;;;5.00;99.90;4.80;102074.00;;;;5011206;27;93898;-70
2022/01/25 06:18:45;;;;;;;14.43;6.90;;;5.00;99.90;4.80;102063.00;;;;4978977;28;93049;-69
2022/01/25 06:21:11;;;;;;;11.17;7.33;;;5.00;99.90;4.80;102075.00;;;;4992661;27;93837;-70
2022/01/25 06:23:36;;;;;;;10.63;6.17;;;5.00;99.90;4.70;102071.00;;;;4991791;28;93586;-69
2022/01/25 06:26:03;;;;;;;10.00;6.17;;;5.00;99.90;4.80;102072.00;;;;4993126;28;92668;-69
2022/01/25 06:28:28;;;;;;;12.40;5.57;;;5.00;99.90;4.80;102070.00;;;;4992270;28;92906;-69
2022/01/25 06:30:54;;;;;;;13.47;7.37;;;5.00;99.90;4.80;102077.00;;;;4996473;27;122542;-69
2022/01/25 06:33:20;;;;;;;13.13;7.60;;;5.00;99.90;4.80;102083.00;;;;5009578;27;93614;-70
2022/01/25 06:35:47;;;;;;;11.33;6.27;;;5.00;99.90;4.80;102079.00;;;;4997396;27;93208;-70
2022/01/25 06:38:13;;;;;;;9.43;6.37;;;5.00;99.90;4.80;102084.00;;;;4992902;28;93141;-70
2022/01/25 06:40:39;;;;;;;11.43;6.63;;;5.00;99.90;4.80;102065.00;;;;4993013;27;98253;-70
2022/01/25 06:43:05;;;;;;;10.93;6.77;;;5.00;99.90;4.80;102078.00;;;;4973512;28;100377;-70
2022/01/25 06:45:31;;;;;;;10.33;6.77;;;5.00;99.90;4.80;102077.00;;;;4993809;27;93043;-69
2022/01/25 06:47:57;;;;;;;11.13;6.57;;;5.00;99.90;4.80;102084.00;;;;4993200;28;92949;-69
2022/01/25 06:50:23;;;;;;;11.10;6.90;;;5.00;99.90;4.80;102083.00;;;;4992652;27;93806;-69
2022/01/25 06:52:50;;;;;;;14.27;7.70;;;5.00;99.90;4.80;102081.00;;;;4992937;27;93799;-70
2022/01/25 06:55:18;;;;;;;12.03;7.20;;;5.00;99.90;4.80;102076.00;;;;4974126;28;92998;-69
2022/01/25 06:57:47;;;;;;;11.40;6.83;;;5.00;99.90;4.80;102075.00;;;;4974690;28;92344;-69
2022/01/25 07:00:17;;;;;;;11.27;6.80;;;5.00;99.90;4.80;102084.00;;;;4975367;28;95206;-70
2022/01/25 07:02:43;;;;;;;9.37;6.80;;;5.00;99.90;4.80;102092.00;;;;4992417;28;93144;-71
2022/01/25 07:05:10;;;;;;;12.03;7.23;;;4.90;99.90;4.80;102092.00;;;;4991391;27;103691;-71
2022/01/25 07:07:38;;;;;;;10.53;6.57;;;5.00;99.90;4.80;102101.00;;;;4992531;28;92749;-70
2022/01/25 07:10:06;;;;;;;10.57;7.03;;;5.00;99.90;4.70;102094.00;;;;5003533;27;93284;-71
2022/01/25 07:12:32;;;;;;;10.20;6.63;;;4.90;99.90;4.70;102093.00;;;;5012393;27;93872;-70
2022/01/25 07:14:58;;;;;;;9.20;5.83;;;4.90;99.90;4.70;102097.00;;;;5011475;27;97454;-70
2022/01/25 07:17:24;;;;;;;11.63;7.23;;;4.90;99.90;4.70;102097.00;;;;5010020;27;108824;-70
2022/01/25 07:19:50;;;;;;;12.93;7.40;;;4.90;99.90;4.70;102099.00;;;;5007614;27;121732;-70
2022/01/25 07:22:16;;;;;;;10.47;7.03;;;4.90;99.90;4.70;102108.00;;;;5005874;27;93641;-70
2022/01/25 07:24:42;;;;;;;12.80;7.00;;;5.00;99.90;4.70;102111.00;;;;5002880;27;96492;-72
2022/01/25 07:27:08;;;;;;;15.27;7.53;;;4.90;99.90;4.70;102099.00;;;;4996060;27;92816;-70
2022/01/25 07:29:34;;;;;;;9.40;6.57;;;4.90;99.90;4.70;102115.00;;;;4976076;28;94147;-70
2022/01/25 07:32:00;;;;;;;9.20;5.70;;;4.90;99.90;4.70;102105.00;;;;4995475;27;123515;-73
2022/01/25 07:34:26;;;;;;;10.50;6.17;;;4.90;99.90;4.60;102110.00;;;;4995477;28;93336;-70
2022/01/25 07:36:52;;;;;;;11.80;6.70;;;4.80;99.90;4.60;102100.00;;;;4999086;27;97134;-70
2022/01/25 07:39:19;;;;;;;9.70;5.60;;;4.80;99.90;4.60;102110.00;;;;5013344;27;121255;-71
2022/01/25 07:41:46;;;;;;;10.50;6.17;;;4.80;99.90;4.60;102109.00;;;;4997176;27;93202;-70
2022/01/25 07:44:12;;;;;;;11.13;5.60;;;4.80;99.90;4.60;102100.00;;;;5015567;27;92830;-70
2022/01/25 07:46:39;;;;;;;12.37;6.73;;;5.00;99.90;4.60;102095.00;;;;5010303;27;92096;-70
2022/01/25 07:49:05;;;;;;;10.30;5.80;;;4.90;99.90;4.60;102099.00;;;;4975899;27;92867;-69
2022/01/25 07:51:32;;;;;;;12.33;7.50;;;4.90;99.90;4.60;102100.00;;;;4994156;28;122922;-70
2022/01/25 07:54:01;;;;;;;10.33;6.07;;;4.80;99.90;4.60;102096.00;;;;4985357;28;94156;-70
2022/01/25 07:56:27;;;;;;;10.63;5.77;;;4.60;99.90;4.60;102100.00;;;;4995608;28;92910;-69
2022/01/25 07:58:53;;;;;;;10.30;5.87;;;4.80;99.90;4.60;102081.00;;;;4996842;27;94003;-69
2022/01/25 08:01:20;;;;;;;8.67;6.57;;;4.80;99.90;4.60;102085.00;;;;4992251;28;93162;-69
2022/01/25 08:03:46;;;;;;;11.03;7.00;;;4.80;99.90;4.60;102081.00;;;;4994607;27;93113;-70
2022/01/25 08:06:13;;;;;;;13.23;6.33;;;4.80;99.90;4.50;102083.00;;;;4994681;28;108696;-70
2022/01/25 08:08:40;;;;;;;11.93;6.67;;;4.80;99.90;4.50;102086.00;;;;4994720;27;94107;-70
2022/01/25 08:11:07;;;;;;;10.83;6.70;;;4.70;99.90;4.50;102073.00;;;;4995379;27;98301;-71
2022/01/25 08:13:36;;;;;;;8.17;6.17;;;4.70;99.90;4.50;102068.00;;;;4976421;28;93072;-70
2022/01/25 08:16:02;;;;;;;10.23;6.47;;;4.70;99.90;4.40;102072.00;;;;5014920;27;92946;-70
2022/01/25 08:18:27;;;;;;;11.37;7.43;;;4.70;99.90;4.40;102076.00;;;;5013816;27;94514;-70
2022/01/25 08:20:53;;;;;;;15.27;7.73;;;4.70;99.90;4.40;102084.00;;;;4995672;27;122173;-70
2022/01/25 08:23:18;;;;;;;14.67;8.13;;;4.60;99.90;4.40;102078.00;;;;4993453;28;110473;-70
2022/01/25 08:25:44;;;;;;;12.40;7.40;;;4.60;99.90;4.40;102063.00;;;;4993645;27;108918;-71
2022/01/25 08:28:10;;;;;;;14.57;7.90;;;4.60;99.90;4.40;102079.00;;;;4993156;28;123273;-70
2022/01/25 08:30:36;;;;;;;13.63;8.03;;;4.60;99.90;4.40;102068.00;;;;4993308;27;122316;-70
2022/01/25 08:33:01;;;;;;;15.13;7.43;;;4.60;99.90;4.40;102072.00;;;;4993925;28;92651;-70
2022/01/25 08:35:27;;;;;;;14.20;8.00;;;4.60;99.90;4.40;102068.00;;;;5010076;27;92416;-71
2022/01/25 08:37:53;;;;;;;17.23;9.43;;;4.70;99.90;4.40;102062.00;;;;5004415;27;92842;-70
2022/01/25 08:40:19;;;;;;;16.37;7.90;;;4.50;99.90;4.30;102059.00;;;;4993684;28;100093;-71
2022/01/25 08:42:44;;;;;;;13.27;7.90;;;4.60;99.90;4.30;102069.00;;;;4991268;27;109052;-72
2022/01/25 08:45:11;;;;;;;20.80;9.67;;;4.60;99.90;4.40;102077.00;;;;4993540;27;108411;-71
2022/01/25 08:47:37;;;;;;;13.83;8.60;;;4.50;99.90;4.40;102072.00;;;;4991595;28;95355;-70
2022/01/25 08:50:05;;;;;;;15.57;7.83;;;4.60;99.90;4.40;102073.00;;;;4994186;27;93075;-69
2022/01/25 08:52:31;;;;;;;15.67;8.23;;;4.60;99.90;4.40;102069.00;;;;4975935;28;92929;-70
2022/01/25 08:54:57;;;;;;;13.80;7.50;;;4.60;99.90;4.40;102080.00;;;;4993225;27;108410;-71
2022/01/25 08:57:23;;;;;;;13.63;6.70;;;4.60;99.90;4.40;102072.00;;;;4993253;28;103626;-71
2022/01/25 08:59:49;;;;;;;16.30;6.30;;;4.60;99.90;4.40;102070.00;;;;4979199;28;93195;-71
2022/01/25 09:02:14;;;;;;;12.53;6.67;;;4.60;99.90;4.40;102080.00;;;;5007962;27;93678;-72
2022/01/25 09:04:41;;;;;;;12.67;6.83;;;4.60;99.90;4.40;102080.00;;;;4993349;27;108098;-74
2022/01/25 09:07:07;;;;;;;12.27;6.00;;;4.60;99.90;4.30;102088.00;;;;4992692;27;123364;-71
2022/01/25 09:09:33;;;;;;;10.57;6.40;;;4.60;99.90;4.30;102086.00;;;;4992763;27;105981;-71
2022/01/25 09:11:59;;;;;;;9.70;5.47;;;4.50;99.90;4.30;102091.00;;;;4991966;27;92929;-75
2022/01/25 09:14:25;;;;;;;9.33;5.97;;;4.50;99.90;4.30;102090.00;;;;4976836;28;108456;-70
2022/01/25 09:16:51;;;;;;;13.97;6.50;;;4.60;99.90;4.30;102097.00;;;;4992187;28;123119;-74
2022/01/25 09:19:16;;;;;;;12.80;6.83;;;4.60;99.90;4.30;102096.00;;;;4995639;27;120751;-71
2022/01/25 09:21:42;;;;;;;12.17;6.30;;;4.50;99.90;4.20;102104.00;;;;4994373;27;109639;-72
2022/01/25 09:24:09;;;;;;;9.60;6.50;;;4.40;99.90;4.20;102106.00;;;;5012618;27;92973;-72
2022/01/25 09:26:35;;;;;;;11.37;6.77;;;4.40;99.90;4.20;102096.00;;;;5014060;27;94200;-70
2022/01/25 09:29:02;;;;;;;12.47;7.03;;;4.40;99.90;4.20;102101.00;;;;5013407;27;106622;-72
2022/01/25 09:31:28;;;;;;;15.90;7.43;;;4.50;99.90;4.20;102103.00;;;;4994320;27;93885;-70
2022/01/25 09:33:55;;;;;;;13.67;7.03;;;4.40;99.90;4.20;102106.00;;;;5011562;27;92879;-71
2022/01/25 09:36:24;;;;;;;14.20;7.67;;;5.10;99.90;4.20;102108.00;;;;4980979;27;93241;-71
2022/01/25 09:38:55;;;;;;;9.43;6.13;;;4.30;99.90;4.20;102107.00;;;;5013839;27;93099;-70
2022/01/25 09:41:23;;;;;;;10.03;6.47;;;4.40;99.90;4.20;102100.00;;;;4992400;27;93061;-75
2022/01/25 09:43:49;;;;;;;11.13;6.23;;;4.40;99.90;4.20;102111.00;;;;5011531;27;92819;-72
2022/01/25 09:46:15;;;;;;;17.10;7.43;;;4.40;99.90;4.20;102107.00;;;;5012199;27;119551;-72
2022/01/25 09:48:41;;;;;;;11.13;7.17;;;4.40;99.90;4.20;102100.00;;;;5012741;27;93732;-74
2022/01/25 09:51:10;;;;;;;14.23;7.67;;;4.40;99.90;4.20;102096.00;;;;5011742;27;110310;-71
2022/01/25 09:53:38;;;;;;;12.47;7.07;;;4.30;99.90;4.10;102099.00;;;;5013325;27;92820;-71
2022/01/25 09:56:05;;;;;;;12.97;7.63;;;4.30;99.90;4.10;102098.00;;;;4976293;27;94533;-72
2022/01/25 09:58:31;;;;;;;13.03;6.77;;;4.40;99.90;4.10;102108.00;;;;5012278;27;109938;-75
2022/01/25 10:01:01;;;;;;;15.07;7.53;;;4.40;99.90;4.10;102102.00;;;;5009900;27;109973;-71
2022/01/25 10:03:32;;;;;;;15.37;6.50;;;4.30;99.90;4.20;102105.00;;;;5013267;27;92919;-72
2022/01/25 10:06:01;;;;;;;10.77;6.30;;;4.40;99.90;4.20;102104.00;;;;4980668;28;94224;-71
2022/01/25 10:08:35;;;;;;;12.57;6.63;;;4.30;99.90;4.20;102097.00;;;;4974139;28;93075;-74
2022/01/25 10:11:07;;;;;;;13.33;6.37;;;4.50;99.90;4.30;102106.00;;;;4974565;28;92817;-73
2022/01/25 10:13:46;;;;;;;8.97;6.60;;;4.50;99.90;4.30;102094.00;;;;4957961;28;92297;-72
2022/01/25 10:16:35;;;;;;;10.33;6.57;;;4.50;99.90;4.30;102097.00;;;;4991339;28;94016;-71
2022/01/25 10:19:08;;;;;;;15.80;7.03;;;4.50;99.90;4.40;102101.00;;;;4975597;27;94150;-71
2022/01/25 10:21:41;;;;;;;14.33;7.80;;;4.60;99.90;4.40;102102.00;;;;5009501;27;93916;-71
2022/01/25 10:24:16;;;;;;;10.67;6.47;;;4.60;99.90;4.40;102104.00;;;;4994003;27;93105;-71
2022/01/25 10:27:00;;;;;;;8.83;6.00;;;4.60;99.90;4.50;102097.00;;;;4999123;27;92815;-74
2022/01/25 10:29:36;;;;;;;9.33;6.80;;;4.70;99.90;4.50;102108.00;;;;4988346;28;94565;-72
2022/01/25 10:32:13;;;;;;;12.67;7.17;;;4.70;99.90;4.50;102105.00;;;;4992432;28;93091;-75
2022/01/25 10:34:47;;;;;;;15.67;7.67;;;4.70;99.90;4.50;102094.00;;;;5011112;27;92711;-75
2022/01/25 10:37:19;;;;;;;12.00;6.53;;;4.70;99.90;4.50;102095.00;;;;4973762;28;95129;-71
2022/01/25 10:39:48;;;;;;;9.03;5.67;;;4.70;99.90;4.40;102105.00;;;;4992445;28;93864;-72
2022/01/25 10:42:29;;;;;;;10.00;4.83;;;4.60;99.90;4.40;102099.00;;;;5013021;27;92618;-74
2022/01/25 10:45:02;;;;;;;11.87;6.13;;;4.60;99.90;4.40;102098.00;;;;4993415;27;92926;-73
2022/01/25 10:47:51;;;;;;;11.73;6.50;;;4.60;99.90;4.30;102095.00;;;;4993168;27;94242;-75
2022/01/25 10:50:35;;;;;;;13.30;6.20;;;4.60;99.90;4.30;102109.00;;;;5011965;27;93595;-72
2022/01/25 10:53:15;;;;;;;12.67;5.80;;;4.50;99.90;4.30;102100.00;;;;5012456;27;93195;-75
2022/01/25 10:55:51;;;;;;;10.67;6.03;;;4.70;99.90;4.40;102106.00;;;;5009788;27;92889;-72
2022/01/25 10:58:18;;;;;;;12.17;6.33;;;4.50;99.90;4.30;102106.00;;;;5011940;27;93688;-72
2022/01/25 11:00:49;;;;;;;13.17;5.73;;;4.80;99.90;4.30;102104.00;;;;5009068;27;94017;-71
2022/01/25 11:03:32;;;;;;;10.80;5.53;;;4.60;99.90;4.30;102106.00;;;;4992004;28;92767;-75
2022/01/25 11:06:19;;;;;;;8.87;6.20;;;4.50;99.90;4.20;102101.00;;;;4992532;27;91873;-74
2022/01/25 11:08:48;;;;;;;12.37;5.47;;;4.40;99.90;4.20;102097.00;;;;4979465;28;93508;-72
2022/01/25 11:11:33;;;;;;;11.87;5.80;;;4.40;99.90;4.20;102098.00;;;;4994867;28;107538;-75
2022/01/25 11:14:50;;;;;;;11.53;6.40;;;4.40;99.90;4.20;102099.00;;;;4973288;28;93890;-72
2022/01/25 11:16:44;;;;;;;9.73;5.83;;;4.40;99.90;4.20;102094.00;;;;4990418;27;93156;-73
2022/01/25 11:19:11;;;;;;;13.30;6.07;;;4.40;99.90;4.20;102104.00;;;;4973369;28;94009;-73
2022/01/25 11:21:37;;;;;;;12.37;6.10;;;4.40;99.90;4.20;102088.00;;;;4984192;28;117811;-73
2022/01/25 11:24:04;;;;;;;11.37;5.67;;;4.40;99.90;4.20;102083.00;;;;4959962;28;98911;-79
2022/01/25 11:26:30;;;;;;;11.13;6.33;;;4.30;99.90;4.10;102088.00;;;;4970458;28;92908;-74
2022/01/25 11:28:56;;;;;;;9.33;5.53;;;4.40;99.90;4.20;102094.00;;;;4974835;28;94023;-72
2022/01/25 11:31:23;;;;;;;8.37;5.27;;;4.40;99.90;4.20;102097.00;;;;4987383;28;93444;-73
2022/01/25 11:33:52;;;;;;;14.40;6.57;;;4.40;99.90;4.20;102091.00;;;;4990198;28;93113;-73
2022/01/25 11:36:20;;;;;;;12.97;5.87;;;4.40;99.90;4.20;102091.00;;;;4989808;27;93025;-73
2022/01/25 11:38:54;;;;;;;10.63;5.10;;;4.40;99.90;4.30;102079.00;;;;5009763;27;94887;-73
2022/01/25 11:41:24;;;;;;;10.77;6.47;;;4.50;99.90;4.30;102080.00;;;;4991770;27;95364;-74
2022/01/25 11:44:09;;;;;;;10.63;5.00;;;4.50;99.90;4.30;102070.00;;;;4980515;28;93162;-73
2022/01/25 11:46:38;;;;;;;8.67;5.60;;;4.50;99.90;4.30;102075.00;;;;4998000;27;92989;-77
2022/01/25 11:49:14;;;;;;;13.53;6.93;;;4.60;99.90;4.30;102059.00;;;;4975413;27;93268;-71
2022/01/25 11:51:40;;;;;;;12.97;5.80;;;4.50;99.90;4.30;102072.00;;;;5010327;27;93346;-72
2022/01/25 11:54:08;;;;;;;9.13;5.57;;;4.60;99.90;4.40;102068.00;;;;5011735;27;92826;-74
2022/01/25 11:56:37;;;;;;;11.37;6.20;;;4.50;99.90;4.40;102057.00;;;;4992390;27;92062;-74
2022/01/25 11:59:05;;;;;;;8.90;6.33;;;4.60;99.90;4.40;102049.00;;;;4972547;28;94419;-76
2022/01/25 12:01:34;;;;;;;15.33;5.60;;;4.60;99.90;4.40;102036.00;;;;4979428;27;93117;-76
2022/01/25 12:04:06;;;;;;;13.80;5.93;;;4.60;99.90;4.40;102035.00;;;;4998244;27;93972;-74
2022/01/25 12:06:39;;;;;;;12.37;6.43;;;4.50;99.90;4.40;102030.00;;;;4979232;28;92792;-74
2022/01/25 12:09:17;;;;;;;14.37;7.10;;;4.60;99.90;4.50;102027.00;;;;4975635;28;93154;-74
2022/01/25 12:12:07;;;;;;;12.07;6.27;;;4.60;99.90;4.40;102026.00;;;;5012909;27;94342;-74
2022/01/25 12:14:49;;;;;;;11.13;6.57;;;4.60;99.90;4.50;102023.00;;;;4998608;27;92959;-74
2022/01/25 12:17:24;;;;;;;13.37;6.40;;;4.70;99.90;4.70;102013.00;;;;4995842;27;93066;-75
2022/01/25 12:19:57;;;;;;;11.00;5.90;;;4.80;99.90;5.20;102011.00;;;;4995770;27;93409;-71
2022/01/25 12:22:26;;;;;;;9.97;5.73;;;5.20;99.90;5.60;102012.00;;;;4959722;28;94542;-75
2022/01/25 12:25:14;;;;;;;13.10;6.33;;;5.60;99.90;5.80;102017.00;;;;5003427;27;92747;-76
2022/01/25 12:27:56;;;;;;;9.67;6.17;;;5.80;99.90;6.00;102016.00;;;;4981355;27;92847;-72
2022/01/25 12:30:25;;;;;;;10.47;5.23;;;6.10;99.90;6.10;102008.00;;;;4990838;28;94307;-72
2022/01/25 12:33:08;;;;;;;9.87;5.27;;;6.20;99.90;6.20;102009.00;;;;4994229;28;100016;-71
2022/01/25 12:35:46;;;;;;;10.00;5.37;;;6.30;99.90;6.40;102011.00;;;;4994347;28;93330;-71
2022/01/25 12:38:24;;;;;;;10.43;4.97;;;6.50;99.90;6.70;102014.00;;;;4994557;28;92733;-70
2022/01/25 12:41:08;;;;;;;8.33;4.70;;;6.70;99.90;7.20;102005.00;;;;4993783;27;93232;-70
2022/01/25 12:43:45;;;;;;;7.33;4.67;;;7.10;99.90;7.50;101993.00;;;;4994058;28;92971;-70
2022/01/25 12:46:26;;;;;;;11.27;4.67;;;7.50;99.90;7.90;102011.00;;;;5005951;27;93462;-70
2022/01/25 12:49:01;;;;;;;8.13;4.47;;;7.80;99.90;8.20;101998.00;;;;4991805;28;94817;-70
2022/01/25 12:51:32;;;;;;;7.83;4.47;;;8.10;99.90;8.40;101991.00;;;;4993589;28;92973;-72